sensor_id;sensor_type;location;lat;lon;timestamp;pressure;altitude;pressure_sealevel;temperature;humidity
36964;BME280;22878;48.616;35.326;2023-02-04T00:01:40;100581.52;;;-0.55;100.00
36964;BME280;22878;48.616;35.326;2023-02-04T00:04:06;100583.20;;;-0.50;100.00
36964;BME280;22878;48.616;35.326;2023-02-04T00:06:31;100581.88;;;-0.44;100.00
36964;BME280;22878;48.616;35.326;2023-02-04T00:08:56;100578.66;;;-0.36;100.00
36964;BME280;22878;48.616;35.326;2023-02-04T00:11:22;100575.15;;;-0.29;100.00
36964;BME280;22878;48.616;35.326;2023-02-04T00:13:47;100567.28;;;-0.21;100.00
36964;BME280;22878;48.616;35.326;2023-02-04T00:16:13;100561.88;;;-0.15;100.00
36964;BME280;22878;48.616;35.326;2023-02-04T00:18:38;100558.41;;;-0.07;100.00
36964;BME280;22878;48.616;35.326;2023-02-04T00:21:04;100561.13;;;0.01;100.00
36964;BME280;22878;48.616;35.326;2023-02-04T00:23:29;100558.44;;;0.07;100.00
36964;BME280;22878;48.616;35.326;2023-02-04T00:25:55;100557.92;;;0.14;100.00
36964;BME280;22878;48.616;35.326;2023-02-04T00:28:20;100554.94;;;0.19;100.00
36964;BME280;22878;48.616;35.326;2023-02-04T00:30:46;100552.83;;;0.25;100.00
36964;BME280;22878;48.616;35.326;2023-02-04T00:33:12;100551.91;;;0.30;100.00
36964;BME280;22878;48.616;35.326;2023-02-04T00:35:37;100549.92;;;0.36;100.00
36964;BME280;22878;48.616;35.326;2023-02-04T00:38:04;100551.06;;;0.41;100.00
36964;BME280;22878;48.616;35.326;2023-02-04T00:40:30;100551.46;;;0.46;100.00
36964;BME280;22878;48.616;35.326;2023-02-04T00:42:55;100551.23;;;0.51;100.00
36964;BME280;22878;48.616;35.326;2023-02-04T00:45:20;100548.53;;;0.55;100.00
36964;BME280;22878;48.616;35.326;2023-02-04T00:47:46;100542.67;;;0.59;100.00
36964;BME280;22878;48.616;35.326;2023-02-04T00:50:11;100541.46;;;0.61;100.00
36964;BME280;22878;48.616;35.326;2023-02-04T00:52:37;100538.94;;;0.61;100.00
36964;BME280;22878;48.616;35.326;2023-02-04T00:55:03;100537.28;;;0.57;100.00
36964;BME280;22878;48.616;35.326;2023-02-04T00:57:29;100530.52;;;0.52;100.00
36964;BME280;22878;48.616;35.326;2023-02-04T00:59:54;100529.02;;;0.44;100.00
36964;BME280;22878;48.616;35.326;2023-02-04T01:02:20;100532.23;;;0.41;100.00
36964;BME280;22878;48.616;35.326;2023-02-04T01:04:45;100534.12;;;0.39;100.00
36964;BME280;22878;48.616;35.326;2023-02-04T01:07:11;100537.10;;;0.39;100.00
36964;BME280;22878;48.616;35.326;2023-02-04T01:09:36;100536.20;;;0.41;100.00
36964;BME280;22878;48.616;35.326;2023-02-04T01:12:02;100533.20;;;0.43;100.00
36964;BME280;22878;48.616;35.326;2023-02-04T01:14:27;100532.61;;;0.44;100.00
36964;BME280;22878;48.616;35.326;2023-02-04T01:16:53;100528.91;;;0.47;100.00
36964;BME280;22878;48.616;35.326;2023-02-04T01:19:18;100528.17;;;0.50;100.00
36964;BME280;22878;48.616;35.326;2023-02-04T01:21:45;100524.97;;;0.50;100.00
36964;BME280;22878;48.616;35.326;2023-02-04T01:24:10;100529.14;;;0.52;100.00
36964;BME280;22878;48.616;35.326;2023-02-04T01:26:36;100526.54;;;0.53;100.00
36964;BME280;22878;48.616;35.326;2023-02-04T01:29:01;100526.46;;;0.55;100.00
36964;BME280;22878;48.616;35.326;2023-02-04T01:31:27;100526.31;;;0.57;100.00
36964;BME280;22878;48.616;35.326;2023-02-04T01:33:55;100526.23;;;0.58;100.00
36964;BME280;22878;48.616;35.326;2023-02-04T01:36:21;100525.42;;;0.57;100.00
36964;BME280;22878;48.616;35.326;2023-02-04T01:38:47;100520.28;;;0.59;100.00
36964;BME280;22878;48.616;35.326;2023-02-04T01:41:14;100523.27;;;0.60;100.00
36964;BME280;22878;48.616;35.326;2023-02-04T01:43:40;100521.70;;;0.63;100.00
36964;BME280;22878;48.616;35.326;2023-02-04T01:46:07;100521.42;;;0.66;100.00
36964;BME280;22878;48.616;35.326;2023-02-04T01:48:33;100524.40;;;0.67;100.00
36964;BME280;22878;48.616;35.326;2023-02-04T01:51:09;100520.25;;;0.69;100.00
36964;BME280;22878;48.616;35.326;2023-02-04T01:53:36;100517.87;;;0.68;100.00
36964;BME280;22878;48.616;35.326;2023-02-04T01:56:22;100517.80;;;0.66;100.00
36964;BME280;22878;48.616;35.326;2023-02-04T01:58:50;100518.20;;;0.66;100.00
36964;BME280;22878;48.616;35.326;2023-02-04T02:01:37;100518.19;;;0.64;100.00
36964;BME280;22878;48.616;35.326;2023-02-04T02:04:05;100515.98;;;0.65;100.00
36964;BME280;22878;48.616;35.326;2023-02-04T02:06:31;100517.83;;;0.65;100.00
36964;BME280;22878;48.616;35.326;2023-02-04T02:08:56;100518.04;;;0.67;100.00
36964;BME280;22878;48.616;35.326;2023-02-04T02:11:24;100519.38;;;0.67;100.00
36964;BME280;22878;48.616;35.326;2023-02-04T02:13:50;100519.98;;;0.65;100.00
36964;BME280;22878;48.616;35.326;2023-02-04T02:16:16;100519.20;;;0.61;100.00
36964;BME280;22878;48.616;35.326;2023-02-04T02:18:41;100524.12;;;0.58;100.00
36964;BME280;22878;48.616;35.326;2023-02-04T02:21:08;100526.26;;;0.54;100.00
36964;BME280;22878;48.616;35.326;2023-02-04T02:23:49;100526.11;;;0.51;100.00
36964;BME280;22878;48.616;35.326;2023-02-04T02:26:17;100527.18;;;0.52;100.00
36964;BME280;22878;48.616;35.326;2023-02-04T02:28:44;100526.74;;;0.47;100.00
36964;BME280;22878;48.616;35.326;2023-02-04T02:31:13;100532.32;;;0.45;100.00
36964;BME280;22878;48.616;35.326;2023-02-04T02:33:38;100532.31;;;0.42;100.00
36964;BME280;22878;48.616;35.326;2023-02-04T02:36:04;100534.98;;;0.39;100.00
36964;BME280;22878;48.616;35.326;2023-02-04T02:38:30;100534.91;;;0.40;100.00
36964;BME280;22878;48.616;35.326;2023-02-04T02:40:56;100534.45;;;0.41;100.00
36964;BME280;22878;48.616;35.326;2023-02-04T02:43:25;100535.02;;;0.39;100.00
36964;BME280;22878;48.616;35.326;2023-02-04T02:45:51;100536.89;;;0.38;100.00
36964;BME280;22878;48.616;35.326;2023-02-04T02:48:18;100536.30;;;0.37;100.00
36964;BME280;22878;48.616;35.326;2023-02-04T02:50:44;100536.93;;;0.37;100.00
36964;BME280;22878;48.616;35.326;2023-02-04T02:53:11;100539.85;;;0.37;100.00
36964;BME280;22878;48.616;35.326;2023-02-04T02:55:38;100536.19;;;0.38;100.00
36964;BME280;22878;48.616;35.326;2023-02-04T02:58:04;100536.60;;;0.36;100.00
36964;BME280;22878;48.616;35.326;2023-02-04T03:00:35;100535.23;;;0.36;100.00
36964;BME280;22878;48.616;35.326;2023-02-04T03:03:06;100533.63;;;0.32;100.00
36964;BME280;22878;48.616;35.326;2023-02-04T03:05:37;100534.80;;;0.31;100.00
36964;BME280;22878;48.616;35.326;2023-02-04T03:08:05;100536.98;;;0.29;100.00
36964;BME280;22878;48.616;35.326;2023-02-04T03:10:31;100532.84;;;0.30;100.00
36964;BME280;22878;48.616;35.326;2023-02-04T03:12:58;100529.38;;;0.31;100.00
36964;BME280;22878;48.616;35.326;2023-02-04T03:15:24;100536.37;;;0.33;100.00
36964;BME280;22878;48.616;35.326;2023-02-04T03:17:50;100535.48;;;0.34;100.00
36964;BME280;22878;48.616;35.326;2023-02-04T03:20:24;100538.73;;;0.32;100.00
36964;BME280;22878;48.616;35.326;2023-02-04T03:22:51;100536.41;;;0.29;100.00
36964;BME280;22878;48.616;35.326;2023-02-04T03:25:16;100532.01;;;0.28;100.00
36964;BME280;22878;48.616;35.326;2023-02-04T03:27:42;100529.46;;;0.26;100.00
36964;BME280;22878;48.616;35.326;2023-02-04T03:30:08;100529.86;;;0.24;100.00
36964;BME280;22878;48.616;35.326;2023-02-04T03:32:34;100528.74;;;0.23;100.00
36964;BME280;22878;48.616;35.326;2023-02-04T03:35:00;100529.73;;;0.22;100.00
36964;BME280;22878;48.616;35.326;2023-02-04T03:37:25;100526.27;;;0.23;100.00
36964;BME280;22878;48.616;35.326;2023-02-04T03:39:51;100523.55;;;0.24;100.00
36964;BME280;22878;48.616;35.326;2023-02-04T03:42:16;100522.42;;;0.22;100.00
36964;BME280;22878;48.616;35.326;2023-02-04T03:44:42;100518.40;;;0.22;100.00
36964;BME280;22878;48.616;35.326;2023-02-04T03:47:08;100521.03;;;0.20;100.00
36964;BME280;22878;48.616;35.326;2023-02-04T03:49:33;100516.90;;;0.19;100.00
36964;BME280;22878;48.616;35.326;2023-02-04T03:52:01;100522.81;;;0.17;100.00
36964;BME280;22878;48.616;35.326;2023-02-04T03:54:27;100525.19;;;0.15;100.00
36964;BME280;22878;48.616;35.326;2023-02-04T03:56:52;100520.69;;;0.13;100.00
36964;BME280;22878;48.616;35.326;2023-02-04T03:59:18;100521.55;;;0.13;100.00
36964;BME280;22878;48.616;35.326;2023-02-04T04:01:44;100523.84;;;0.13;100.00
36964;BME280;22878;48.616;35.326;2023-02-04T04:04:09;100521.77;;;0.11;100.00
36964;BME280;22878;48.616;35.326;2023-02-04T04:06:35;100526.76;;;0.11;100.00
36964;BME280;22878;48.616;35.326;2023-02-04T04:09:01;100524.33;;;0.09;100.00
36964;BME280;22878;48.616;35.326;2023-02-04T04:11:26;100519.80;;;0.08;100.00
36964;BME280;22878;48.616;35.326;2023-02-04T04:13:52;100522.00;;;0.08;100.00
36964;BME280;22878;48.616;35.326;2023-02-04T04:16:17;100521.67;;;0.06;100.00
36964;BME280;22878;48.616;35.326;2023-02-04T04:18:44;100521.26;;;0.05;100.00
36964;BME280;22878;48.616;35.326;2023-02-04T04:21:10;100518.92;;;0.04;100.00
36964;BME280;22878;48.616;35.326;2023-02-04T04:23:35;100521.16;;;0.03;100.00
36964;BME280;22878;48.616;35.326;2023-02-04T04:26:01;100519.45;;;0.03;100.00
36964;BME280;22878;48.616;35.326;2023-02-04T04:28:26;100520.48;;;0.00;100.00
36964;BME280;22878;48.616;35.326;2023-02-04T04:30:52;100520.52;;;-0.00;100.00
36964;BME280;22878;48.616;35.326;2023-02-04T04:33:17;100521.27;;;-0.01;100.00
36964;BME280;22878;48.616;35.326;2023-02-04T04:35:43;100520.15;;;0.00;100.00
36964;BME280;22878;48.616;35.326;2023-02-04T04:38:08;100517.36;;;0.02;100.00
36964;BME280;22878;48.616;35.326;2023-02-04T04:40:34;100518.71;;;0.03;100.00
36964;BME280;22878;48.616;35.326;2023-02-04T04:42:59;100520.51;;;0.04;100.00
36964;BME280;22878;48.616;35.326;2023-02-04T04:45:25;100517.61;;;0.05;100.00
36964;BME280;22878;48.616;35.326;2023-02-04T04:47:50;100516.97;;;0.06;100.00
36964;BME280;22878;48.616;35.326;2023-02-04T04:50:16;100522.52;;;0.07;100.00
36964;BME280;22878;48.616;35.326;2023-02-04T04:52:42;100524.81;;;0.08;100.00
36964;BME280;22878;48.616;35.326;2023-02-04T04:55:08;100524.86;;;0.10;100.00
36964;BME280;22878;48.616;35.326;2023-02-04T04:57:33;100530.64;;;0.12;100.00
36964;BME280;22878;48.616;35.326;2023-02-04T04:59:59;100528.55;;;0.16;100.00
36964;BME280;22878;48.616;35.326;2023-02-04T05:02:24;100528.17;;;0.21;100.00
36964;BME280;22878;48.616;35.326;2023-02-04T05:04:50;100527.73;;;0.22;100.00
36964;BME280;22878;48.616;35.326;2023-02-04T05:07:15;100533.05;;;0.22;100.00
36964;BME280;22878;48.616;35.326;2023-02-04T05:09:41;100532.03;;;0.18;100.00
36964;BME280;22878;48.616;35.326;2023-02-04T05:12:06;100536.16;;;0.17;100.00
36964;BME280;22878;48.616;35.326;2023-02-04T05:14:32;100540.02;;;0.18;100.00
36964;BME280;22878;48.616;35.326;2023-02-04T05:16:58;100543.42;;;0.16;100.00
36964;BME280;22878;48.616;35.326;2023-02-04T05:19:23;100547.34;;;0.15;100.00
36964;BME280;22878;48.616;35.326;2023-02-04T05:21:49;100548.17;;;0.19;100.00
36964;BME280;22878;48.616;35.326;2023-02-04T05:24:14;100552.44;;;0.23;100.00
36964;BME280;22878;48.616;35.326;2023-02-04T05:26:40;100552.24;;;0.29;100.00
36964;BME280;22878;48.616;35.326;2023-02-04T05:29:05;100555.73;;;0.34;100.00
36964;BME280;22878;48.616;35.326;2023-02-04T05:31:31;100556.48;;;0.36;100.00
36964;BME280;22878;48.616;35.326;2023-02-04T05:33:56;100556.21;;;0.38;100.00
36964;BME280;22878;48.616;35.326;2023-02-04T05:36:22;100557.68;;;0.41;100.00
36964;BME280;22878;48.616;35.326;2023-02-04T05:38:47;100557.29;;;0.40;100.00
36964;BME280;22878;48.616;35.326;2023-02-04T05:41:13;100559.96;;;0.37;100.00
36964;BME280;22878;48.616;35.326;2023-02-04T05:43:39;100560.73;;;0.37;100.00
36964;BME280;22878;48.616;35.326;2023-02-04T05:46:04;100567.70;;;0.43;100.00
36964;BME280;22878;48.616;35.326;2023-02-04T05:48:30;100573.89;;;0.53;100.00
36964;BME280;22878;48.616;35.326;2023-02-04T05:50:55;100577.27;;;0.58;100.00
36964;BME280;22878;48.616;35.326;2023-02-04T05:53:21;100578.88;;;0.61;100.00
36964;BME280;22878;48.616;35.326;2023-02-04T05:55:47;100578.65;;;0.63;100.00
36964;BME280;22878;48.616;35.326;2023-02-04T05:58:12;100579.48;;;0.69;100.00
36964;BME280;22878;48.616;35.326;2023-02-04T06:00:38;100581.08;;;0.75;100.00
36964;BME280;22878;48.616;35.326;2023-02-04T06:03:03;100584.50;;;0.79;100.00
36964;BME280;22878;48.616;35.326;2023-02-04T06:05:29;100582.34;;;0.82;100.00
36964;BME280;22878;48.616;35.326;2023-02-04T06:07:54;100585.48;;;0.83;100.00
36964;BME280;22878;48.616;35.326;2023-02-04T06:10:20;100582.20;;;0.86;100.00
36964;BME280;22878;48.616;35.326;2023-02-04T06:12:46;100582.35;;;0.94;100.00
36964;BME280;22878;48.616;35.326;2023-02-04T06:15:12;100582.91;;;1.02;100.00
36964;BME280;22878;48.616;35.326;2023-02-04T06:17:38;100584.79;;;1.09;100.00
36964;BME280;22878;48.616;35.326;2023-02-04T06:20:05;100586.00;;;1.16;100.00
36964;BME280;22878;48.616;35.326;2023-02-04T06:22:31;100589.30;;;1.22;100.00
36964;BME280;22878;48.616;35.326;2023-02-04T06:24:57;100590.52;;;1.31;100.00
36964;BME280;22878;48.616;35.326;2023-02-04T06:27:22;100591.06;;;1.39;100.00
36964;BME280;22878;48.616;35.326;2023-02-04T06:29:49;100596.36;;;1.45;100.00
36964;BME280;22878;48.616;35.326;2023-02-04T06:32:16;100599.67;;;1.46;100.00
36964;BME280;22878;48.616;35.326;2023-02-04T06:34:41;100601.34;;;1.47;100.00
36964;BME280;22878;48.616;35.326;2023-02-04T06:37:07;100601.38;;;1.44;100.00
36964;BME280;22878;48.616;35.326;2023-02-04T06:39:32;100607.70;;;1.37;100.00
36964;BME280;22878;48.616;35.326;2023-02-04T06:41:58;100615.92;;;1.29;100.00
36964;BME280;22878;48.616;35.326;2023-02-04T06:44:23;100613.45;;;1.27;100.00
36964;BME280;22878;48.616;35.326;2023-02-04T06:46:48;100614.79;;;1.24;100.00
36964;BME280;22878;48.616;35.326;2023-02-04T06:49:14;100617.11;;;1.23;100.00
36964;BME280;22878;48.616;35.326;2023-02-04T06:51:39;100615.89;;;1.23;100.00
36964;BME280;22878;48.616;35.326;2023-02-04T06:54:05;100615.29;;;1.24;100.00
36964;BME280;22878;48.616;35.326;2023-02-04T06:56:30;100620.73;;;1.21;100.00
36964;BME280;22878;48.616;35.326;2023-02-04T06:58:56;100625.63;;;1.19;100.00
36964;BME280;22878;48.616;35.326;2023-02-04T07:01:22;100629.52;;;1.19;100.00
36964;BME280;22878;48.616;35.326;2023-02-04T07:03:47;100632.30;;;1.22;100.00
36964;BME280;22878;48.616;35.326;2023-02-04T07:06:13;100637.11;;;1.29;100.00
36964;BME280;22878;48.616;35.326;2023-02-04T07:08:38;100638.88;;;1.40;100.00
36964;BME280;22878;48.616;35.326;2023-02-04T07:11:04;100636.09;;;1.52;100.00
36964;BME280;22878;48.616;35.326;2023-02-04T07:13:29;100640.66;;;1.64;100.00
36964;BME280;22878;48.616;35.326;2023-02-04T07:15:55;100638.45;;;1.73;100.00
36964;BME280;22878;48.616;35.326;2023-02-04T07:18:20;100639.84;;;1.80;100.00
36964;BME280;22878;48.616;35.326;2023-02-04T07:20:49;100642.02;;;1.85;100.00
36964;BME280;22878;48.616;35.326;2023-02-04T07:23:17;100643.41;;;1.96;100.00
36964;BME280;22878;48.616;35.326;2023-02-04T07:25:44;100648.35;;;1.97;100.00
36964;BME280;22878;48.616;35.326;2023-02-04T07:28:10;100651.85;;;1.94;100.00
36964;BME280;22878;48.616;35.326;2023-02-04T07:30:35;100653.87;;;1.97;100.00
36964;BME280;22878;48.616;35.326;2023-02-04T07:33:01;100652.81;;;2.00;100.00
36964;BME280;22878;48.616;35.326;2023-02-04T07:35:29;100656.64;;;1.95;100.00
36964;BME280;22878;48.616;35.326;2023-02-04T07:37:55;100661.91;;;1.93;100.00
36964;BME280;22878;48.616;35.326;2023-02-04T07:40:20;100661.97;;;1.97;100.00
36964;BME280;22878;48.616;35.326;2023-02-04T07:42:46;100661.27;;;1.97;100.00
36964;BME280;22878;48.616;35.326;2023-02-04T07:45:16;100664.17;;;1.94;100.00
36964;BME280;22878;48.616;35.326;2023-02-04T07:47:44;100666.34;;;1.95;100.00
36964;BME280;22878;48.616;35.326;2023-02-04T07:50:13;100671.87;;;1.95;100.00
36964;BME280;22878;48.616;35.326;2023-02-04T07:52:38;100668.34;;;1.99;100.00
36964;BME280;22878;48.616;35.326;2023-02-04T07:55:04;100672.81;;;2.08;100.00
36964;BME280;22878;48.616;35.326;2023-02-04T07:57:30;100672.77;;;2.08;100.00
36964;BME280;22878;48.616;35.326;2023-02-04T07:59:56;100668.73;;;2.08;100.00
36964;BME280;22878;48.616;35.326;2023-02-04T08:02:21;100667.87;;;2.08;100.00
36964;BME280;22878;48.616;35.326;2023-02-04T08:04:47;100670.28;;;2.10;100.00
36964;BME280;22878;48.616;35.326;2023-02-04T08:07:13;100668.83;;;2.17;100.00
36964;BME280;22878;48.616;35.326;2023-02-04T08:09:38;100672.73;;;2.22;100.00
36964;BME280;22878;48.616;35.326;2023-02-04T08:12:04;100679.23;;;2.24;100.00
36964;BME280;22878;48.616;35.326;2023-02-04T08:14:30;100680.80;;;2.24;100.00
36964;BME280;22878;48.616;35.326;2023-02-04T08:16:55;100683.56;;;2.24;100.00
36964;BME280;22878;48.616;35.326;2023-02-04T08:19:21;100684.85;;;2.15;100.00
36964;BME280;22878;48.616;35.326;2023-02-04T08:21:47;100688.19;;;2.08;100.00
36964;BME280;22878;48.616;35.326;2023-02-04T08:24:16;100694.98;;;2.04;100.00
36964;BME280;22878;48.616;35.326;2023-02-04T08:26:43;100695.45;;;2.00;100.00
36964;BME280;22878;48.616;35.326;2023-02-04T08:29:09;100696.86;;;1.92;100.00
36964;BME280;22878;48.616;35.326;2023-02-04T08:31:35;100701.39;;;1.91;100.00
36964;BME280;22878;48.616;35.326;2023-02-04T08:34:04;100705.48;;;1.89;100.00
36964;BME280;22878;48.616;35.326;2023-02-04T08:36:30;100703.13;;;1.80;100.00
36964;BME280;22878;48.616;35.326;2023-02-04T08:38:56;100712.54;;;1.83;100.00
36964;BME280;22878;48.616;35.326;2023-02-04T08:41:21;100710.25;;;1.84;100.00
36964;BME280;22878;48.616;35.326;2023-02-04T08:43:47;100712.95;;;1.87;100.00
36964;BME280;22878;48.616;35.326;2023-02-04T08:46:12;100714.12;;;1.92;100.00
36964;BME280;22878;48.616;35.326;2023-02-04T08:48:38;100710.96;;;1.91;100.00
36964;BME280;22878;48.616;35.326;2023-02-04T08:51:03;100714.70;;;1.94;100.00
36964;BME280;22878;48.616;35.326;2023-02-04T08:53:29;100712.72;;;1.89;100.00
36964;BME280;22878;48.616;35.326;2023-02-04T08:55:54;100712.67;;;1.84;100.00
36964;BME280;22878;48.616;35.326;2023-02-04T08:58:20;100710.84;;;1.80;100.00
36964;BME280;22878;48.616;35.326;2023-02-04T09:00:45;100707.23;;;1.75;100.00
36964;BME280;22878;48.616;35.326;2023-02-04T09:03:11;100705.65;;;1.78;100.00
36964;BME280;22878;48.616;35.326;2023-02-04T09:05:37;100706.02;;;1.78;100.00
36964;BME280;22878;48.616;35.326;2023-02-04T09:08:02;100704.79;;;1.77;100.00
36964;BME280;22878;48.616;35.326;2023-02-04T09:10:28;100705.99;;;1.85;100.00
36964;BME280;22878;48.616;35.326;2023-02-04T09:12:53;100704.99;;;1.91;100.00
36964;BME280;22878;48.616;35.326;2023-02-04T09:15:22;100707.19;;;2.00;100.00
36964;BME280;22878;48.616;35.326;2023-02-04T09:17:51;100703.38;;;2.15;100.00
36964;BME280;22878;48.616;35.326;2023-02-04T09:20:29;100701.73;;;2.31;100.00
36964;BME280;22878;48.616;35.326;2023-02-04T09:22:54;100697.20;;;2.41;100.00
36964;BME280;22878;48.616;35.326;2023-02-04T09:25:20;100697.37;;;2.56;100.00
36964;BME280;22878;48.616;35.326;2023-02-04T09:27:45;100693.14;;;2.60;100.00
36964;BME280;22878;48.616;35.326;2023-02-04T09:30:11;100692.66;;;2.75;100.00
36964;BME280;22878;48.616;35.326;2023-02-04T09:32:37;100690.71;;;2.94;100.00
36964;BME280;22878;48.616;35.326;2023-02-04T09:35:02;100685.73;;;3.12;100.00
36964;BME280;22878;48.616;35.326;2023-02-04T09:37:28;100688.20;;;3.38;100.00
36964;BME280;22878;48.616;35.326;2023-02-04T09:39:53;100697.27;;;3.65;100.00
36964;BME280;22878;48.616;35.326;2023-02-04T09:42:22;100702.55;;;3.94;100.00
36964;BME280;22878;48.616;35.326;2023-02-04T09:44:49;100704.36;;;4.24;100.00
36964;BME280;22878;48.616;35.326;2023-02-04T09:47:15;100701.76;;;4.60;100.00
36964;BME280;22878;48.616;35.326;2023-02-04T09:49:46;100700.67;;;4.80;100.00
36964;BME280;22878;48.616;35.326;2023-02-04T09:52:13;100705.08;;;5.05;100.00
36964;BME280;22878;48.616;35.326;2023-02-04T09:54:41;100708.45;;;5.07;100.00
36964;BME280;22878;48.616;35.326;2023-02-04T09:57:16;100715.11;;;4.87;100.00
36964;BME280;22878;48.616;35.326;2023-02-04T09:59:43;100711.80;;;4.77;100.00
36964;BME280;22878;48.616;35.326;2023-02-04T10:02:35;100709.45;;;4.69;100.00
36964;BME280;22878;48.616;35.326;2023-02-04T10:05:01;100702.34;;;4.48;100.00
36964;BME280;22878;48.616;35.326;2023-02-04T10:07:26;100709.41;;;4.22;100.00
36964;BME280;22878;48.616;35.326;2023-02-04T10:09:53;100709.34;;;4.15;100.00
36964;BME280;22878;48.616;35.326;2023-02-04T10:12:19;100710.97;;;4.10;100.00
36964;BME280;22878;48.616;35.326;2023-02-04T10:14:45;100710.18;;;4.10;100.00
36964;BME280;22878;48.616;35.326;2023-02-04T10:17:14;100711.27;;;4.13;100.00
36964;BME280;22878;48.616;35.326;2023-02-04T10:19:42;100712.30;;;4.05;100.00
36964;BME280;22878;48.616;35.326;2023-02-04T10:22:16;100711.23;;;3.91;100.00
36964;BME280;22878;48.616;35.326;2023-02-04T10:24:42;100709.66;;;3.82;100.00
36964;BME280;22878;48.616;35.326;2023-02-04T10:27:12;100711.89;;;3.74;100.00
36964;BME280;22878;48.616;35.326;2023-02-04T10:29:40;100713.70;;;3.70;100.00
36964;BME280;22878;48.616;35.326;2023-02-04T10:32:30;100717.38;;;3.74;100.00
36964;BME280;22878;48.616;35.326;2023-02-04T10:35:00;100719.95;;;3.65;100.00
36964;BME280;22878;48.616;35.326;2023-02-04T10:37:26;100718.51;;;3.45;100.00
36964;BME280;22878;48.616;35.326;2023-02-04T10:39:53;100720.93;;;3.23;100.00
36964;BME280;22878;48.616;35.326;2023-02-04T10:42:24;100719.52;;;3.16;100.00
36964;BME280;22878;48.616;35.326;2023-02-04T10:44:50;100715.83;;;3.19;100.00
36964;BME280;22878;48.616;35.326;2023-02-04T10:47:22;100722.01;;;3.22;100.00
36964;BME280;22878;48.616;35.326;2023-02-04T10:50:13;100717.14;;;3.30;100.00
36964;BME280;22878;48.616;35.326;2023-02-04T10:52:45;100722.61;;;3.38;100.00
36964;BME280;22878;48.616;35.326;2023-02-04T10:55:18;100722.73;;;3.27;100.00
36964;BME280;22878;48.616;35.326;2023-02-04T10:57:45;100730.77;;;3.25;100.00
36964;BME280;22878;48.616;35.326;2023-02-04T11:00:23;100732.60;;;3.30;100.00
36964;BME280;22878;48.616;35.326;2023-02-04T11:03:00;100736.04;;;3.31;100.00
36964;BME280;22878;48.616;35.326;2023-02-04T11:05:35;100736.36;;;3.30;100.00
36964;BME280;22878;48.616;35.326;2023-02-04T11:10:43;100738.20;;;3.15;100.00
36964;BME280;22878;48.616;35.326;2023-02-04T11:13:21;100736.44;;;3.17;100.00
36964;BME280;22878;48.616;35.326;2023-02-04T11:15:49;100732.38;;;3.21;100.00
36964;BME280;22878;48.616;35.326;2023-02-04T11:20:51;100723.36;;;3.17;100.00
36964;BME280;22878;48.616;35.326;2023-02-04T11:33:49;100716.21;;;3.45;100.00
36964;BME280;22878;48.616;35.326;2023-02-04T11:36:16;100719.44;;;3.48;100.00
36964;BME280;22878;48.616;35.326;2023-02-04T11:38:47;100724.84;;;3.39;100.00
36964;BME280;22878;48.616;35.326;2023-02-04T11:41:23;100727.34;;;3.35;100.00
36964;BME280;22878;48.616;35.326;2023-02-04T11:43:50;100727.06;;;3.35;100.00
36964;BME280;22878;48.616;35.326;2023-02-04T11:46:17;100722.52;;;3.43;100.00
36964;BME280;22878;48.616;35.326;2023-02-04T11:48:43;100715.64;;;3.47;100.00
36964;BME280;22878;48.616;35.326;2023-02-04T11:51:15;100715.92;;;3.54;100.00
36964;BME280;22878;48.616;35.326;2023-02-04T11:53:41;100713.75;;;3.68;100.00
36964;BME280;22878;48.616;35.326;2023-02-04T11:56:19;100717.65;;;3.83;100.00
36964;BME280;22878;48.616;35.326;2023-02-04T11:58:45;100720.14;;;3.89;100.00
36964;BME280;22878;48.616;35.326;2023-02-04T12:01:21;100724.02;;;3.81;100.00
36964;BME280;22878;48.616;35.326;2023-02-04T12:03:50;100722.75;;;3.73;100.00
36964;BME280;22878;48.616;35.326;2023-02-04T12:06:26;100726.73;;;3.65;100.00
36964;BME280;22878;48.616;35.326;2023-02-04T12:08:51;100725.02;;;3.57;100.00
36964;BME280;22878;48.616;35.326;2023-02-04T12:11:28;100727.80;;;3.52;100.00
36964;BME280;22878;48.616;35.326;2023-02-04T12:14:05;100729.59;;;3.48;100.00
36964;BME280;22878;48.616;35.326;2023-02-04T12:16:40;100733.66;;;3.33;100.00
36964;BME280;22878;48.616;35.326;2023-02-04T12:19:06;100733.58;;;3.31;100.00
36964;BME280;22878;48.616;35.326;2023-02-04T12:21:31;100741.27;;;3.15;100.00
36964;BME280;22878;48.616;35.326;2023-02-04T12:23:57;100744.90;;;2.95;100.00
36964;BME280;22878;48.616;35.326;2023-02-04T12:26:22;100757.34;;;2.83;100.00
36964;BME280;22878;48.616;35.326;2023-02-04T12:28:48;100761.65;;;2.78;100.00
36964;BME280;22878;48.616;35.326;2023-02-04T12:31:13;100762.62;;;2.73;100.00
36964;BME280;22878;48.616;35.326;2023-02-04T12:33:39;100770.02;;;2.55;100.00
36964;BME280;22878;48.616;35.326;2023-02-04T12:36:04;100775.14;;;2.48;100.00
36964;BME280;22878;48.616;35.326;2023-02-04T12:38:30;100779.38;;;2.49;100.00
36964;BME280;22878;48.616;35.326;2023-02-04T12:40:56;100780.56;;;2.50;100.00
36964;BME280;22878;48.616;35.326;2023-02-04T12:43:21;100783.39;;;2.51;100.00
36964;BME280;22878;48.616;35.326;2023-02-04T12:45:47;100784.42;;;2.53;100.00
36964;BME280;22878;48.616;35.326;2023-02-04T12:48:13;100785.77;;;2.55;100.00
36964;BME280;22878;48.616;35.326;2023-02-04T12:50:39;100787.31;;;2.50;100.00
36964;BME280;22878;48.616;35.326;2023-02-04T12:53:05;100794.22;;;2.43;100.00
36964;BME280;22878;48.616;35.326;2023-02-04T12:55:31;100799.61;;;2.43;100.00